Time;durP1;ratioP1;P1;durP2;ratioP2;P2;SDS_P1;SDS_P2;PMS_P1;PMS_P2;Temp;Humidity;BMP_temperature;BMP_pressure;BME280_temperature;BME280_humidity;BME280_pressure;Samples;Min_cycle;Max_cycle;Signal;HPM_P1;HPM_P2
2023/03/02 00:02:20;;;;;;;1999.90;999.90;;;0.10;99.90;;;;;;4996903;28;20037;-77
2023/03/02 00:04:55;;;;;;;1999.90;999.90;;;0.00;99.90;;;;;;4996693;28;20035;-77
2023/03/02 00:07:31;;;;;;;1999.90;999.90;;;0.00;99.90;;;;;;4996739;28;20130;-76
2023/03/02 00:09:57;;;;;;;1999.90;999.90;;;0.00;99.90;;;;;;4996827;28;20853;-76
2023/03/02 00:12:25;;;;;;;1999.90;999.90;;;0.00;99.90;;;;;;4997993;28;20042;-76
2023/03/02 00:14:51;;;;;;;1999.90;999.90;;;0.10;99.90;;;;;;5010449;28;20892;-76
2023/03/02 00:17:16;;;;;;;1999.90;999.90;;;0.10;99.90;;;;;;4998228;28;20077;-76
2023/03/02 00:19:43;;;;;;;1999.90;999.90;;;0.10;99.90;;;;;;4996484;28;20059;-76
2023/03/02 00:22:09;;;;;;;1999.90;999.90;;;0.10;99.90;;;;;;4996621;28;20057;-76
2023/03/02 00:24:34;;;;;;;1999.90;999.90;;;0.20;99.90;;;;;;4995030;28;20041;-76
2023/03/02 00:27:00;;;;;;;1999.90;999.90;;;0.20;99.90;;;;;;4996610;28;20050;-76
2023/03/02 00:29:25;;;;;;;1999.90;999.90;;;0.20;99.90;;;;;;4995852;28;20090;-76
2023/03/02 00:31:51;;;;;;;1999.90;999.90;;;0.20;99.90;;;;;;4996376;28;20493;-76
2023/03/02 00:34:16;;;;;;;1999.90;999.90;;;0.10;99.90;;;;;;4996195;28;20034;-76
2023/03/02 00:36:42;;;;;;;1999.90;999.90;;;0.00;99.90;;;;;;4996310;28;20102;-76
2023/03/02 00:39:07;;;;;;;1999.90;999.90;;;0.00;99.90;;;;;;4996388;28;20441;-76
2023/03/02 00:41:33;;;;;;;1999.90;999.90;;;-0.10;99.90;;;;;;4994961;28;20031;-76
2023/03/02 00:43:58;;;;;;;1999.90;999.90;;;-0.20;99.90;;;;;;4996036;28;20030;-77
2023/03/02 00:46:24;;;;;;;1999.90;999.90;;;-0.20;99.90;;;;;;4994587;28;20366;-77
2023/03/02 00:48:51;;;;;;;1999.90;999.90;;;-0.40;99.90;;;;;;4996308;28;20035;-76
2023/03/02 00:51:17;;;;;;;1999.90;999.90;;;-0.40;99.90;;;;;;4996252;28;20113;-76
2023/03/02 00:53:43;;;;;;;1999.90;999.90;;;-0.50;99.90;;;;;;4995991;28;20027;-76
2023/03/02 00:56:09;;;;;;;1999.90;999.90;;;-0.50;99.90;;;;;;4995765;28;20039;-76
2023/03/02 00:58:35;;;;;;;1999.90;999.90;;;-0.60;99.90;;;;;;4995875;28;20065;-76
2023/03/02 01:01:07;;;;;;;1999.90;999.90;;;-0.60;99.90;;;;;;4996082;28;20074;-77
2023/03/02 01:03:33;;;;;;;1999.90;999.90;;;-0.60;99.90;;;;;;4994399;28;20059;-76
2023/03/02 01:05:59;;;;;;;1999.90;999.90;;;-0.70;99.90;;;;;;4995624;28;20133;-76
2023/03/02 01:08:25;;;;;;;1999.90;999.90;;;-0.70;99.90;;;;;;4996438;28;20031;-76
2023/03/02 01:10:51;;;;;;;1999.90;999.90;;;-0.70;99.90;;;;;;4995414;28;20074;-76
2023/03/02 01:13:18;;;;;;;1999.90;999.90;;;-0.80;99.90;;;;;;4995818;28;20035;-76
2023/03/02 01:15:44;;;;;;;1999.90;999.90;;;-0.90;99.90;;;;;;4995748;28;20038;-76
2023/03/02 01:18:10;;;;;;;1999.90;999.90;;;-0.80;99.90;;;;;;4995564;28;20464;-76
2023/03/02 01:20:35;;;;;;;1999.90;999.90;;;-0.70;99.90;;;;;;4995663;28;20039;-76
2023/03/02 01:23:01;;;;;;;1999.90;999.90;;;-0.80;99.90;;;;;;4995885;28;20516;-76
2023/03/02 01:25:26;;;;;;;1999.90;999.90;;;-0.80;99.90;;;;;;4995403;28;20078;-76
2023/03/02 01:27:52;;;;;;;1999.90;999.90;;;-0.80;99.90;;;;;;4994278;28;20117;-76
2023/03/02 01:30:17;;;;;;;1999.90;999.90;;;-0.90;99.90;;;;;;4995079;28;20085;-76
2023/03/02 01:32:43;;;;;;;1999.90;999.90;;;-1.00;99.90;;;;;;4995719;28;20121;-76
2023/03/02 01:35:09;;;;;;;1999.90;999.90;;;-1.10;99.90;;;;;;4995421;28;20031;-76
2023/03/02 01:37:34;;;;;;;1999.90;999.90;;;-1.10;99.90;;;;;;4995670;28;20042;-76
2023/03/02 01:40:04;;;;;;;1999.90;999.90;;;-1.10;99.90;;;;;;4995018;28;20046;-76
2023/03/02 01:42:37;;;;;;;1999.90;999.90;;;-1.20;99.90;;;;;;4995401;28;20559;-76
2023/03/02 01:45:04;;;;;;;1999.90;999.90;;;-1.20;99.90;;;;;;4994998;28;20043;-76
2023/03/02 01:47:37;;;;;;;1999.90;999.90;;;-1.40;99.90;;;;;;4995202;28;20134;-76
2023/03/02 01:50:22;;;;;;;1999.90;999.90;;;-1.40;99.90;;;;;;4994803;28;20090;-77
2023/03/02 01:52:48;;;;;;;1999.90;999.90;;;-1.40;99.90;;;;;;4994807;28;20038;-76
2023/03/02 01:55:18;;;;;;;1999.90;999.90;;;-1.40;99.90;;;;;;4994935;28;20118;-76
2023/03/02 01:57:48;;;;;;;1999.90;999.90;;;-1.40;99.90;;;;;;4995009;28;20117;-76
2023/03/02 02:00:20;;;;;;;1999.90;999.90;;;-1.40;99.90;;;;;;4994533;28;20472;-76
2023/03/02 02:02:47;;;;;;;1999.90;999.90;;;-1.40;99.90;;;;;;4995163;28;20039;-76
2023/03/02 02:05:20;;;;;;;1999.90;999.90;;;-1.50;99.90;;;;;;4994860;28;20031;-76
2023/03/02 02:07:45;;;;;;;1999.90;999.90;;;-1.50;99.90;;;;;;4995250;28;20756;-76
2023/03/02 02:10:12;;;;;;;1999.90;999.90;;;-1.60;99.90;;;;;;4994143;28;20042;-76
2023/03/02 02:12:37;;;;;;;1999.90;999.90;;;-1.70;99.90;;;;;;4995265;28;20039;-76
2023/03/02 02:15:04;;;;;;;1999.90;999.90;;;-1.70;99.90;;;;;;4994869;28;20444;-76
2023/03/02 02:17:30;;;;;;;1999.90;999.90;;;-1.70;99.90;;;;;;4994954;28;20489;-76
2023/03/02 02:20:06;;;;;;;1999.90;999.90;;;-1.80;99.90;;;;;;4994925;28;20030;-76
2023/03/02 02:23:02;;;;;;;1999.90;999.90;;;-1.80;99.90;;;;;;4993535;28;20110;-76
2023/03/02 02:25:54;;;;;;;1999.90;999.90;;;-1.80;99.90;;;;;;4999650;28;20535;-76
2023/03/02 02:28:43;;;;;;;1999.90;999.90;;;-1.80;99.90;;;;;;5004018;28;20126;-76
2023/03/02 02:31:25;;;;;;;1999.90;999.90;;;-1.70;99.90;;;;;;4993997;28;20106;-76
2023/03/02 02:33:56;;;;;;;1999.90;999.90;;;-1.70;99.90;;;;;;4994805;28;20477;-76
2023/03/02 02:36:25;;;;;;;1999.90;999.90;;;-1.70;99.90;;;;;;4994899;28;20520;-76
2023/03/02 02:38:54;;;;;;;1999.90;999.90;;;-1.70;99.90;;;;;;4993159;28;20093;-76
2023/03/02 02:41:24;;;;;;;1999.90;999.90;;;-1.60;99.90;;;;;;4992952;28;20468;-76
2023/03/02 02:43:50;;;;;;;1999.90;999.90;;;-1.50;99.90;;;;;;4994395;28;20091;-76
2023/03/02 02:46:16;;;;;;;1999.90;999.90;;;-1.60;99.90;;;;;;4993155;28;20074;-76
2023/03/02 02:48:42;;;;;;;1999.90;999.90;;;-1.60;99.90;;;;;;4994174;28;20117;-76
2023/03/02 02:51:11;;;;;;;1999.90;999.90;;;-1.60;99.90;;;;;;4994620;28;20488;-76
2023/03/02 02:53:57;;;;;;;1999.90;999.90;;;-1.60;99.90;;;;;;4994443;28;20034;-76
2023/03/02 02:56:31;;;;;;;1999.90;999.90;;;-1.60;99.90;;;;;;4994696;28;20066;-76
2023/03/02 02:59:03;;;;;;;1999.90;999.90;;;-1.60;99.90;;;;;;4994590;28;20038;-76
2023/03/02 03:01:28;;;;;;;1999.90;999.90;;;-1.60;99.90;;;;;;4994092;28;20080;-76
2023/03/02 03:03:59;;;;;;;1999.90;999.90;;;-1.70;99.90;;;;;;4994883;28;20085;-76
2023/03/02 03:06:40;;;;;;;1999.90;999.90;;;-1.60;99.90;;;;;;4997906;28;20546;-76
2023/03/02 03:09:08;;;;;;;1999.90;999.90;;;-1.60;99.90;;;;;;4996205;28;20493;-76
2023/03/02 03:11:36;;;;;;;1999.90;999.90;;;-1.70;99.90;;;;;;4997636;28;20039;-76
2023/03/02 03:14:16;;;;;;;1999.90;999.90;;;-1.70;99.90;;;;;;4997377;28;20039;-76
2023/03/02 03:16:46;;;;;;;1999.90;999.90;;;-1.80;99.90;;;;;;4997257;28;20815;-76
2023/03/02 03:19:31;;;;;;;1999.90;999.90;;;-1.80;99.90;;;;;;4996030;28;20039;-76
2023/03/02 03:22:00;;;;;;;1999.90;999.90;;;-1.90;99.90;;;;;;4997510;28;20058;-76
2023/03/02 03:24:28;;;;;;;1999.90;999.90;;;-1.80;99.90;;;;;;4997018;28;20034;-76
2023/03/02 03:26:55;;;;;;;1999.90;999.90;;;-1.70;99.90;;;;;;4997394;28;20481;-76
2023/03/02 03:29:23;;;;;;;1999.90;999.90;;;-1.70;99.90;;;;;;4997036;28;20487;-76
2023/03/02 03:31:51;;;;;;;1999.90;999.90;;;-1.70;99.90;;;;;;4997088;28;20576;-76
2023/03/02 03:34:16;;;;;;;1999.90;999.90;;;-1.60;99.90;;;;;;4997145;28;20045;-76
2023/03/02 03:36:42;;;;;;;1999.90;999.90;;;-1.60;99.90;;;;;;4995880;28;20034;-76
2023/03/02 03:39:10;;;;;;;1999.90;999.90;;;-1.50;99.90;;;;;;4997111;28;20132;-76
2023/03/02 03:41:35;;;;;;;1999.90;999.90;;;-1.40;99.90;;;;;;4997384;28;20485;-76
2023/03/02 03:44:01;;;;;;;1999.90;999.90;;;-1.40;99.90;;;;;;4996781;28;20035;-76
2023/03/02 03:46:27;;;;;;;1999.90;999.90;;;-1.50;99.90;;;;;;4997256;28;20034;-76
2023/03/02 03:48:53;;;;;;;1999.90;999.90;;;-1.60;99.90;;;;;;4995640;28;20576;-76
2023/03/02 03:51:19;;;;;;;1999.90;999.90;;;-1.60;99.90;;;;;;4997283;28;20089;-76
2023/03/02 03:53:45;;;;;;;1999.90;999.90;;;-1.70;99.90;;;;;;4997146;28;20030;-76
2023/03/02 03:56:11;;;;;;;1999.90;999.90;;;-1.80;99.90;;;;;;4995521;28;20057;-76
2023/03/02 03:58:36;;;;;;;1999.90;999.90;;;-1.90;99.90;;;;;;4997071;28;20548;-76
2023/03/02 04:01:03;;;;;;;1999.90;999.90;;;-1.90;99.90;;;;;;4997007;28;20034;-76
2023/03/02 04:03:28;;;;;;;1999.90;999.90;;;-2.00;99.90;;;;;;4996788;28;20035;-76
2023/03/02 04:05:54;;;;;;;1999.90;999.90;;;-2.00;99.90;;;;;;4996553;28;20053;-76
2023/03/02 04:08:20;;;;;;;1999.90;999.90;;;-2.00;99.90;;;;;;4997010;28;20409;-78
2023/03/02 04:10:46;;;;;;;1999.90;999.90;;;-2.00;99.90;;;;;;4996587;28;20047;-76
2023/03/02 04:13:12;;;;;;;1999.90;999.90;;;-2.00;99.90;;;;;;4996636;28;20027;-76
2023/03/02 04:15:38;;;;;;;1999.90;999.90;;;-2.00;99.90;;;;;;4996217;28;20544;-76
2023/03/02 04:18:03;;;;;;;1999.90;999.90;;;-2.00;99.90;;;;;;4996793;28;20512;-76
2023/03/02 04:20:29;;;;;;;1999.90;999.90;;;-2.00;99.90;;;;;;4996188;28;20043;-76
2023/03/02 04:22:56;;;;;;;1999.90;999.90;;;-2.00;99.90;;;;;;4996731;28;20030;-76
2023/03/02 04:25:24;;;;;;;1999.90;999.90;;;-1.90;99.90;;;;;;4994951;28;20105;-76
2023/03/02 04:27:51;;;;;;;1999.90;999.90;;;-1.80;99.90;;;;;;5014109;28;20075;-76
2023/03/02 04:30:19;;;;;;;1999.90;999.90;;;-1.70;99.90;;;;;;5020596;28;20026;-76
2023/03/02 04:32:45;;;;;;;1999.90;999.90;;;-1.60;99.90;;;;;;5007174;28;20055;-76
2023/03/02 04:35:11;;;;;;;1999.90;999.90;;;-1.50;99.90;;;;;;4996917;28;20058;-76
2023/03/02 04:37:37;;;;;;;1999.90;999.90;;;-1.40;99.90;;;;;;4996184;28;20075;-76
2023/03/02 04:40:04;;;;;;;1999.90;999.90;;;-1.40;99.90;;;;;;4996331;28;20473;-76
2023/03/02 04:42:29;;;;;;;1999.90;999.90;;;-1.50;99.90;;;;;;4994805;28;20043;-76
2023/03/02 04:44:55;;;;;;;1999.90;999.90;;;-1.50;99.90;;;;;;4996208;28;20042;-76
2023/03/02 04:47:20;;;;;;;1999.90;999.90;;;-1.50;99.90;;;;;;4996053;28;20043;-76
2023/03/02 04:49:48;;;;;;;1999.90;999.90;;;-1.60;99.90;;;;;;4996050;28;20046;-76
2023/03/02 04:52:13;;;;;;;1999.90;999.90;;;-1.70;99.90;;;;;;4995931;28;20039;-76
2023/03/02 04:54:39;;;;;;;1999.90;999.90;;;-1.80;99.90;;;;;;4995931;28;20034;-76
2023/03/02 04:57:04;;;;;;;1999.90;999.90;;;-1.90;99.90;;;;;;4994724;28;20043;-76
2023/03/02 04:59:30;;;;;;;1999.90;999.90;;;-1.90;99.90;;;;;;4994256;28;20041;-76
2023/03/02 05:01:58;;;;;;;1999.90;999.90;;;-2.00;99.90;;;;;;4996053;28;20077;-76
2023/03/02 05:04:24;;;;;;;1999.90;999.90;;;-2.00;99.90;;;;;;4994163;28;20496;-76
2023/03/02 05:06:50;;;;;;;1999.90;999.90;;;-2.10;99.90;;;;;;4995881;28;20200;-76
2023/03/02 05:09:15;;;;;;;1999.90;999.90;;;-2.20;99.90;;;;;;4995697;28;20235;-76
2023/03/02 05:11:41;;;;;;;1999.90;999.90;;;-2.30;99.90;;;;;;4995701;28;20046;-76
2023/03/02 05:14:10;;;;;;;1999.90;999.90;;;-2.30;99.90;;;;;;4995650;28;20039;-76
2023/03/02 05:16:38;;;;;;;1999.90;999.90;;;-2.30;99.90;;;;;;4996610;28;20104;-76
2023/03/02 05:19:05;;;;;;;1999.90;999.90;;;-2.40;99.90;;;;;;4996305;28;20037;-76
2023/03/02 05:21:31;;;;;;;1999.90;999.90;;;-2.40;99.90;;;;;;4995742;28;20503;-76
2023/03/02 05:23:57;;;;;;;1999.90;999.90;;;-2.40;99.90;;;;;;4995378;28;20035;-76
2023/03/02 05:26:22;;;;;;;1999.90;999.90;;;-2.40;99.90;;;;;;4994647;28;20493;-76
2023/03/02 05:28:48;;;;;;;1999.90;999.90;;;-2.50;99.90;;;;;;4994492;28;20037;-77
2023/03/02 05:31:27;;;;;;;1999.90;999.90;;;-2.50;99.90;;;;;;5004304;28;20040;-77
2023/03/02 05:33:53;;;;;;;1999.90;999.90;;;-2.60;99.90;;;;;;5014889;28;20062;-77
2023/03/02 05:36:18;;;;;;;1999.90;999.90;;;-2.60;99.90;;;;;;5015352;28;20535;-77
2023/03/02 05:38:44;;;;;;;1999.90;999.90;;;-2.60;99.90;;;;;;5015113;28;20060;-77
2023/03/02 05:41:10;;;;;;;1999.90;999.90;;;-2.60;99.90;;;;;;4998205;28;20034;-77
2023/03/02 05:43:35;;;;;;;1999.90;999.90;;;-2.60;99.90;;;;;;4994997;28;20066;-77
2023/03/02 05:46:02;;;;;;;1999.90;999.90;;;-2.60;99.90;;;;;;4995495;28;20046;-75
2023/03/02 05:48:28;;;;;;;1999.90;999.90;;;-2.50;99.90;;;;;;4993115;28;20038;-76
2023/03/02 05:50:55;;;;;;;1999.90;999.90;;;-2.60;99.90;;;;;;4994101;28;20094;-78
2023/03/02 05:53:20;;;;;;;1999.90;999.90;;;-2.60;99.90;;;;;;4994510;28;20034;-76
2023/03/02 05:55:46;;;;;;;1999.90;999.90;;;-2.70;99.90;;;;;;4994970;28;20046;-77
2023/03/02 05:58:14;;;;;;;1999.90;999.90;;;-2.70;99.90;;;;;;4993327;28;20047;-79
2023/03/02 06:00:40;;;;;;;1999.90;999.90;;;-2.70;99.90;;;;;;4994731;28;20497;-77
2023/03/02 06:03:06;;;;;;;1999.90;999.90;;;-2.70;99.90;;;;;;4993992;28;20041;-78
2023/03/02 06:05:32;;;;;;;1999.90;999.90;;;-2.70;99.90;;;;;;4996722;28;20421;-78
2023/03/02 06:07:58;;;;;;;1999.90;999.90;;;-2.60;99.90;;;;;;5001717;28;20039;-79
2023/03/02 06:10:24;;;;;;;1999.90;999.90;;;-2.70;99.90;;;;;;5009808;28;20060;-76
2023/03/02 06:12:50;;;;;;;1999.90;999.90;;;-2.60;99.90;;;;;;5013720;28;20042;-76
2023/03/02 06:15:16;;;;;;;1999.90;999.90;;;-2.50;99.90;;;;;;5019305;28;20042;-77
2023/03/02 06:17:41;;;;;;;1999.90;999.90;;;-2.60;99.90;;;;;;5009445;28;20031;-78
2023/03/02 06:20:09;;;;;;;1999.90;999.90;;;-2.50;99.90;;;;;;4994530;28;20400;-78
2023/03/02 06:22:44;;;;;;;1999.90;999.90;;;-2.50;99.90;;;;;;4995748;28;20059;-79
2023/03/02 06:25:15;;;;;;;1999.90;999.90;;;-2.50;99.90;;;;;;4990317;28;20039;-78
2023/03/02 06:27:41;;;;;;;1999.90;999.90;;;-2.50;99.90;;;;;;4997126;28;20039;-78
2023/03/02 06:30:10;;;;;;;1999.90;999.90;;;-2.40;99.90;;;;;;5002351;28;20046;-78
2023/03/02 06:32:35;;;;;;;1999.90;999.90;;;-2.30;99.90;;;;;;4996867;28;20559;-79
2023/03/02 06:35:03;;;;;;;1999.90;999.90;;;-2.20;99.90;;;;;;4996950;28;20042;-79
2023/03/02 06:37:29;;;;;;;1999.90;999.90;;;-2.20;99.90;;;;;;4995539;28;20038;-78
2023/03/02 06:39:56;;;;;;;1999.90;999.90;;;-2.10;99.90;;;;;;5004303;28;20089;-78
2023/03/02 06:42:23;;;;;;;1999.90;999.90;;;-2.00;99.90;;;;;;5003045;28;20038;-79
2023/03/02 06:44:50;;;;;;;1999.90;999.90;;;-2.00;99.90;;;;;;4999806;28;20029;-79
2023/03/02 06:47:15;;;;;;;1999.90;999.90;;;-1.90;99.90;;;;;;5000647;28;20037;-78
2023/03/02 06:49:41;;;;;;;1999.90;999.90;;;-1.90;99.90;;;;;;4999872;28;20041;-80
2023/03/02 06:52:06;;;;;;;1999.90;999.90;;;-1.80;99.90;;;;;;4996575;28;20030;-78
2023/03/02 06:54:32;;;;;;;1999.90;999.90;;;-1.70;99.90;;;;;;4999887;28;20042;-79
2023/03/02 06:56:58;;;;;;;1999.90;999.90;;;-1.70;99.90;;;;;;4998110;28;20448;-78
2023/03/02 06:59:26;;;;;;;1999.90;999.90;;;-1.70;99.90;;;;;;4996567;28;20038;-79
2023/03/02 07:01:52;;;;;;;1999.90;999.90;;;-1.60;99.90;;;;;;4997048;28;20035;-78
2023/03/02 07:04:18;;;;;;;1999.90;999.90;;;-1.60;99.90;;;;;;4996343;28;20093;-78
2023/03/02 07:06:43;;;;;;;1999.90;999.90;;;-1.50;99.90;;;;;;4996335;28;20047;-78
2023/03/02 07:09:09;;;;;;;1999.90;999.90;;;-1.50;99.90;;;;;;4997751;28;20031;-78
2023/03/02 07:11:34;;;;;;;1999.90;999.90;;;-1.40;99.90;;;;;;4997611;28;20125;-78
2023/03/02 07:14:00;;;;;;;1999.90;999.90;;;-1.30;99.90;;;;;;4997486;28;20085;-78
2023/03/02 07:16:26;;;;;;;1999.90;999.90;;;-1.20;99.90;;;;;;4995601;28;20042;-78
2023/03/02 07:18:52;;;;;;;1999.90;999.90;;;-1.10;99.90;;;;;;4996035;28;20530;-78
2023/03/02 07:21:18;;;;;;;1999.90;999.90;;;-1.10;99.90;;;;;;4996183;28;20121;-78
2023/03/02 07:23:43;;;;;;;1999.90;999.90;;;-1.00;99.90;;;;;;4997602;28;20035;-78
2023/03/02 07:26:09;;;;;;;1999.90;999.90;;;-0.90;99.90;;;;;;4997530;28;20045;-78
2023/03/02 07:28:40;;;;;;;1999.90;999.90;;;-0.80;99.90;;;;;;4997270;28;20518;-78
2023/03/02 07:31:07;;;;;;;1999.90;999.90;;;-0.60;99.90;;;;;;4997488;28;20031;-78
2023/03/02 07:33:33;;;;;;;1999.90;999.90;;;-0.50;99.90;;;;;;4997543;28;20041;-79
2023/03/02 07:35:59;;;;;;;1999.90;999.90;;;-0.30;99.90;;;;;;4995765;28;20062;-78
2023/03/02 07:38:25;;;;;;;1999.90;999.90;;;-0.20;99.90;;;;;;4997371;28;20073;-78
2023/03/02 07:40:51;;;;;;;1999.90;999.90;;;0.00;99.90;;;;;;4995699;28;20179;-78
2023/03/02 07:43:17;;;;;;;1999.90;999.90;;;0.20;99.90;;;;;;4997058;28;20061;-78
2023/03/02 07:45:42;;;;;;;1999.90;999.90;;;0.30;99.90;;;;;;4997027;28;20031;-78
2023/03/02 07:48:08;;;;;;;1999.90;999.90;;;0.50;99.90;;;;;;4995260;28;20113;-78
2023/03/02 07:50:33;;;;;;;1999.90;999.90;;;0.70;99.90;;;;;;4996394;28;20034;-78
2023/03/02 07:52:59;;;;;;;1999.90;999.90;;;0.80;99.90;;;;;;4997125;28;20468;-78
2023/03/02 07:55:25;;;;;;;1999.90;999.90;;;1.00;99.90;;;;;;4996851;28;20031;-78
2023/03/02 07:57:50;;;;;;;1999.90;999.90;;;1.20;99.90;;;;;;4997247;28;20404;-78
2023/03/02 08:00:16;;;;;;;1999.90;999.90;;;1.30;99.90;;;;;;4996748;28;20485;-77
2023/03/02 08:02:42;;;;;;;1999.90;999.90;;;1.50;99.90;;;;;;4997089;28;20066;-78
2023/03/02 08:05:09;;;;;;;1999.90;999.90;;;1.70;99.90;;;;;;4995073;28;20109;-78
2023/03/02 08:07:35;;;;;;;1999.90;999.90;;;1.80;99.90;;;;;;4996884;28;20174;-80
2023/03/02 08:10:01;;;;;;;1999.90;999.90;;;1.90;99.90;;;;;;4994778;28;20125;-77
2023/03/02 08:12:28;;;;;;;1999.90;999.90;;;2.10;99.90;;;;;;4997254;28;20556;-79
2023/03/02 08:14:53;;;;;;;1999.90;999.90;;;2.20;99.90;;;;;;4996814;28;20033;-78
2023/03/02 08:17:19;;;;;;;1999.90;999.90;;;2.30;99.90;;;;;;4995126;28;20401;-78
2023/03/02 08:19:45;;;;;;;1999.90;999.90;;;2.40;99.90;;;;;;4994940;28;20023;-78
2023/03/02 08:22:10;;;;;;;1999.90;999.90;;;2.50;99.90;;;;;;4995483;28;20121;-78
2023/03/02 08:24:36;;;;;;;1999.90;999.90;;;2.60;99.90;;;;;;4996183;28;20058;-78
2023/03/02 08:27:03;;;;;;;1999.90;999.90;;;2.70;99.90;;;;;;4994812;28;20492;-78
2023/03/02 08:29:29;;;;;;;1999.90;999.90;;;2.80;99.90;;;;;;4993786;28;20031;-78
2023/03/02 08:31:54;;;;;;;1999.90;999.90;;;2.80;99.90;;;;;;4996396;28;20041;-79
2023/03/02 08:34:20;;;;;;;1999.90;999.90;;;2.90;99.90;;;;;;4995847;28;20061;-79
2023/03/02 08:36:45;;;;;;;1999.90;999.90;;;3.00;99.90;;;;;;4998176;28;20084;-78
2023/03/02 08:39:11;;;;;;;1999.90;999.90;;;3.10;99.90;;;;;;4996827;28;20039;-78
2023/03/02 08:41:36;;;;;;;1999.90;999.90;;;3.20;99.90;;;;;;4996615;28;20038;-78
2023/03/02 08:44:02;;;;;;;1999.90;999.90;;;3.30;99.90;;;;;;4996487;28;20069;-78
2023/03/02 08:46:29;;;;;;;1999.90;999.90;;;3.50;99.90;;;;;;4993271;28;20042;-79
2023/03/02 08:48:54;;;;;;;1999.90;999.90;;;3.50;99.90;;;;;;4997011;28;20118;-79
2023/03/02 08:51:23;;;;;;;1999.90;999.90;;;3.60;99.90;;;;;;4997873;28;20556;-78
2023/03/02 08:53:50;;;;;;;1999.90;999.90;;;3.70;99.90;;;;;;5002494;28;20026;-79
2023/03/02 08:56:28;;;;;;;1999.90;999.90;;;3.80;99.90;;;;;;5001532;28;20047;-79
2023/03/02 08:58:58;;;;;;;1999.90;999.90;;;4.00;99.90;;;;;;4997110;28;20066;-78
2023/03/02 09:01:29;;;;;;;1999.90;999.90;;;4.00;99.90;;;;;;4994173;28;20516;-77
2023/03/02 09:03:58;;;;;;;1999.90;999.90;;;4.00;99.90;;;;;;4995389;28;20035;-78
2023/03/02 09:06:24;;;;;;;1999.90;999.90;;;4.20;99.90;;;;;;4995889;28;20035;-78
2023/03/02 09:08:50;;;;;;;1999.90;999.90;;;4.20;99.90;;;;;;4996178;28;20035;-77
2023/03/02 09:11:16;;;;;;;1999.90;999.90;;;4.30;99.90;;;;;;4996507;28;20070;-78
2023/03/02 09:13:41;;;;;;;1999.90;999.90;;;4.40;99.90;;;;;;4999093;28;20473;-79
2023/03/02 09:16:07;;;;;;;1999.90;999.90;;;4.50;99.90;;;;;;4996792;28;20454;-80
2023/03/02 09:18:34;;;;;;;1999.90;999.90;;;4.50;99.90;;;;;;4997296;28;20034;-78
2023/03/02 09:21:00;;;;;;;1999.90;999.90;;;4.70;99.90;;;;;;4997165;28;20049;-79
2023/03/02 09:23:35;;;;;;;1999.90;999.90;;;4.90;99.90;;;;;;5113338;28;20398;-78
2023/03/02 09:26:01;;;;;;;1999.90;999.90;;;5.10;99.90;;;;;;5111066;28;20028;-79
2023/03/02 09:28:26;;;;;;;1999.90;999.90;;;5.20;99.90;;;;;;5112030;28;20032;-80
2023/03/02 09:31:01;;;;;;;1999.90;999.90;;;5.20;99.90;;;;;;5114074;27;20501;-78
2023/03/02 09:33:27;;;;;;;1999.90;999.90;;;5.30;99.90;;;;;;5111668;28;20067;-79
2023/03/02 09:35:52;;;;;;;1999.90;999.90;;;5.40;99.90;;;;;;5106898;27;20098;-78
2023/03/02 09:38:18;;;;;;;1999.90;999.90;;;5.50;99.90;;;;;;5104412;28;20116;-78
2023/03/02 09:41:11;;;;;;;1999.90;999.90;;;5.60;99.90;;;;;;5110687;28;20056;-78
2023/03/02 09:43:44;;;;;;;1999.90;999.90;;;5.80;99.90;;;;;;5114106;27;20068;-78
2023/03/02 09:46:15;;;;;;;1999.90;999.90;;;5.90;99.90;;;;;;5110694;28;20058;-78
2023/03/02 09:49:09;;;;;;;1999.90;999.90;;;6.00;99.90;;;;;;5111886;27;20486;-78
2023/03/02 09:51:46;;;;;;;1999.90;999.90;;;6.10;99.90;;;;;;5113504;27;20032;-80
2023/03/02 09:54:19;;;;;;;1999.90;999.90;;;6.20;99.90;;;;;;5135409;27;20480;-76
2023/03/02 09:56:53;;;;;;;1999.90;999.90;;;6.20;99.90;;;;;;5126191;27;20012;-77
2023/03/02 09:59:38;;;;;;;1999.90;999.90;;;6.20;99.90;;;;;;5123390;27;20037;-77
2023/03/02 10:02:26;;;;;;;1999.90;999.90;;;6.40;99.90;;;;;;5112983;27;20044;-81
2023/03/02 10:04:54;;;;;;;1999.90;999.90;;;6.60;99.90;;;;;;5113483;27;20028;-83
2023/03/02 10:07:29;;;;;;;1999.90;999.90;;;6.60;99.90;;;;;;5111752;27;20028;-77
2023/03/02 10:10:09;;;;;;;1999.90;999.90;;;6.70;99.90;;;;;;5108082;27;20020;-81
2023/03/02 10:12:53;;;;;;;1999.90;999.90;;;6.70;99.90;;;;;;5111627;27;20137;-77
2023/03/02 10:15:30;;;;;;;1999.90;999.90;;;6.70;99.90;;;;;;5125225;22;20047;-78
2023/03/02 10:18:19;;;;;;;1999.90;999.90;;;6.80;99.90;;;;;;5092467;28;20075;-77
2023/03/02 10:20:53;;;;;;;1999.90;999.90;;;6.90;99.90;;;;;;5091634;28;20094;-79
2023/03/02 10:23:40;;;;;;;1999.90;999.90;;;6.80;99.90;;;;;;5098578;28;20037;-79
2023/03/02 10:26:28;;;;;;;1999.90;999.90;;;6.90;99.90;;;;;;5103321;28;20040;-77
2023/03/02 10:29:20;;;;;;;1999.90;999.90;;;7.00;99.90;;;;;;5112278;27;20033;-76
2023/03/02 10:31:51;;;;;;;1999.90;999.90;;;7.10;99.90;;;;;;5101171;28;20044;-76
2023/03/02 10:34:17;;;;;;;1999.90;999.90;;;7.20;99.90;;;;;;5100545;27;20036;-77
2023/03/02 10:36:46;;;;;;;1999.90;999.90;;;7.30;99.90;;;;;;5097327;28;20032;-77
2023/03/02 10:39:14;;;;;;;1999.90;999.90;;;7.30;99.90;;;;;;5097342;28;20040;-77
2023/03/02 10:41:48;;;;;;;1999.90;999.90;;;7.40;99.90;;;;;;5097394;28;20430;-77
2023/03/02 10:44:31;;;;;;;1999.90;999.90;;;7.60;99.90;;;;;;5097122;28;20090;-76
2023/03/02 10:46:58;;;;;;;1999.90;999.90;;;7.70;99.90;;;;;;5097506;28;20807;-77
2023/03/02 10:49:32;;;;;;;1999.90;999.90;;;7.80;99.90;;;;;;5096021;28;20481;-78
2023/03/02 10:52:11;;;;;;;1999.90;999.90;;;7.90;99.90;;;;;;5097427;28;20035;-77
2023/03/02 10:54:37;;;;;;;1999.90;999.90;;;8.10;99.90;;;;;;5093441;28;20044;-78
2023/03/02 10:57:18;;;;;;;1999.90;999.90;;;8.10;99.90;;;;;;5096915;27;20040;-75
2023/03/02 10:59:48;;;;;;;1999.90;999.90;;;8.30;99.90;;;;;;5104593;28;20113;-79
2023/03/02 11:02:22;;;;;;;1999.90;999.90;;;8.40;99.90;;;;;;5115611;27;20043;-78
2023/03/02 11:04:53;;;;;;;1999.90;999.90;;;8.30;99.90;;;;;;5097397;28;20040;-79
2023/03/02 11:07:21;;;;;;;1999.90;999.90;;;8.40;99.90;;;;;;5096489;28;20032;-76
2023/03/02 11:10:03;;;;;;;1999.90;999.90;;;8.40;99.90;;;;;;5097407;28;20125;-79
2023/03/02 11:12:30;;;;;;;1999.90;999.90;;;8.60;99.90;;;;;;5100530;28;20044;-79
2023/03/02 11:15:28;;;;;;;1999.90;999.90;;;8.70;99.90;;;;;;5096192;28;20029;-77
2023/03/02 11:18:23;;;;;;;1999.90;999.90;;;8.70;99.90;;;;;;5076826;28;20040;-77
2023/03/02 11:20:53;;;;;;;1999.90;999.90;;;8.70;99.90;;;;;;5098018;28;20494;-77
2023/03/02 11:23:42;;;;;;;1999.90;999.90;;;8.80;99.90;;;;;;5097215;27;20047;-77
2023/03/02 11:26:38;;;;;;;1999.90;999.90;;;8.90;99.90;;;;;;5094734;28;20043;-77
2023/03/02 11:29:36;;;;;;;1999.90;999.90;;;9.10;99.90;;;;;;5095189;28;20036;-77
2023/03/02 11:32:10;;;;;;;1999.90;999.90;;;9.20;99.70;;;;;;5086314;28;20036;-78
2023/03/02 11:34:42;;;;;;;1999.90;999.90;;;9.30;99.20;;;;;;5074406;28;20037;-78
2023/03/02 11:37:19;;;;;;;1999.90;999.90;;;9.30;99.50;;;;;;5074754;28;20037;-78
2023/03/02 11:39:48;;;;;;;1999.90;999.90;;;9.30;99.30;;;;;;5081132;28;20067;-77
2023/03/02 11:42:25;;;;;;;1999.90;999.90;;;9.40;99.30;;;;;;5093875;28;20040;-77
2023/03/02 11:44:51;;;;;;;1999.90;999.90;;;9.60;98.80;;;;;;5075177;28;20057;-77
2023/03/02 11:47:18;;;;;;;1999.90;999.90;;;9.90;98.70;;;;;;5075760;28;20060;-77
2023/03/02 11:49:51;;;;;;;1999.90;999.90;;;10.00;98.70;;;;;;5074469;28;20037;-77
2023/03/02 11:52:21;;;;;;;1999.90;999.90;;;10.00;98.60;;;;;;5082102;28;20041;-77
2023/03/02 11:54:58;;;;;;;1999.90;999.90;;;10.10;98.00;;;;;;5095027;28;20033;-78
2023/03/02 11:57:28;;;;;;;1999.90;999.90;;;10.20;97.80;;;;;;5087435;28;20040;-76
2023/03/02 11:59:57;;;;;;;1999.90;999.90;;;10.10;97.40;;;;;;5076376;28;20033;-77
2023/03/02 12:02:23;;;;;;;1999.90;999.90;;;10.10;97.80;;;;;;5087857;28;20060;-78
2023/03/02 12:04:59;;;;;;;1999.90;999.90;;;10.20;97.70;;;;;;5085947;28;20044;-77
2023/03/02 12:07:26;;;;;;;1999.90;999.90;;;10.10;97.20;;;;;;5091367;28;20040;-77
2023/03/02 12:10:01;;;;;;;1999.90;999.90;;;10.10;97.70;;;;;;5088084;28;20054;-77
2023/03/02 12:12:39;;;;;;;1999.90;999.90;;;10.30;97.50;;;;;;5076007;28;20043;-78
2023/03/02 12:15:28;;;;;;;1999.90;999.90;;;10.40;97.20;;;;;;5073184;28;20527;-77